Map

Track Data

SID SEASON NUMBER BASIN SUBBASIN NAME ISO_TIME NATURE LAT LON WMO_WIND WMO_PRES WMO_AGENCY TRACK_TYPE DIST2LAND LANDFALL IFLAG USA_AGENCY USA_ATCF_ID USA_LAT USA_LON USA_RECORD USA_STATUS USA_WIND USA_PRES USA_SSHS USA_R34_NE USA_R34_SE USA_R34_SW USA_R34_NW USA_R50_NE USA_R50_SE USA_R50_SW USA_R50_NW USA_R64_NE USA_R64_SE USA_R64_SW USA_R64_NW USA_POCI USA_ROCI USA_RMW USA_EYE TOKYO_LAT TOKYO_LON TOKYO_GRADE TOKYO_WIND TOKYO_PRES TOKYO_R50_DIR TOKYO_R50_LONG TOKYO_R50_SHORT TOKYO_R30_DIR TOKYO_R30_LONG TOKYO_R30_SHORT TOKYO_LAND CMA_LAT CMA_LON CMA_CAT CMA_WIND CMA_PRES HKO_LAT HKO_LON HKO_CAT HKO_WIND HKO_PRES NEWDELHI_LAT NEWDELHI_LON NEWDELHI_GRADE NEWDELHI_WIND NEWDELHI_PRES NEWDELHI_CI NEWDELHI_DP NEWDELHI_POCI REUNION_LAT REUNION_LON REUNION_TYPE REUNION_WIND REUNION_PRES REUNION_TNUM REUNION_CI REUNION_RMW REUNION_R34_NE REUNION_R34_SE REUNION_R34_SW REUNION_R34_NW REUNION_R50_NE REUNION_R50_SE REUNION_R50_SW REUNION_R50_NW REUNION_R64_NE REUNION_R64_SE REUNION_R64_SW REUNION_R64_NW BOM_LAT BOM_LON BOM_TYPE BOM_WIND BOM_PRES BOM_TNUM BOM_CI BOM_RMW BOM_R34_NE BOM_R34_SE BOM_R34_SW BOM_R34_NW BOM_R50_NE BOM_R50_SE BOM_R50_SW BOM_R50_NW BOM_R64_NE BOM_R64_SE BOM_R64_SW BOM_R64_NW BOM_ROCI BOM_POCI BOM_EYE BOM_POS_METHOD BOM_PRES_METHOD NADI_LAT NADI_LON NADI_CAT NADI_WIND NADI_PRES WELLINGTON_LAT WELLINGTON_LON WELLINGTON_WIND WELLINGTON_PRES DS824_LAT DS824_LON DS824_STAGE DS824_WIND DS824_PRES TD9636_LAT TD9636_LON TD9636_STAGE TD9636_WIND TD9636_PRES TD9635_LAT TD9635_LON TD9635_WIND TD9635_PRES TD9635_ROCI NEUMANN_LAT NEUMANN_LON NEUMANN_CLASS NEUMANN_WIND NEUMANN_PRES MLC_LAT MLC_LON MLC_CLASS MLC_WIND MLC_PRES USA_GUST BOM_GUST BOM_GUST_PER REUNION_GUST REUNION_GUST_PER USA_SEAHGT USA_SEARAD_NE USA_SEARAD_SE USA_SEARAD_SW USA_SEARAD_NW STORM_SPEED STORM_DIR
1948011N07147 1948 2 WP MM KAREN 1948-01-11 06:00:00 TS 7.00000 146.800 main 1019 1019 O________O_O__ jtwc_wp WP011948 7.00000 146.800 35 0 7.00000 146.800 TC 35 7.00000 146.800 35 996 360 6 352
1948011N07147 1948 2 WP MM KAREN 1948-01-11 09:00:00 TS 7.28001 146.755 main 1053 1053 P________P_P__ WP011948 7.28001 146.755 35 0 7.28001 146.755 TC 35 7.28001 146.755 35 995 360 6 351
1948011N07147 1948 2 WP MM KAREN 1948-01-11 12:00:00 TS 7.60000 146.700 main 1086 1086 O________OOO__ jtwc_wp WP011948 7.60000 146.700 35 0 7.60000 146.700 TC 35 7.60000 146.700 2 35 7.60000 146.700 35 994 360 7 350
1948011N07147 1948 2 WP MM KAREN 1948-01-11 15:00:00 TS 7.98822 146.626 main 1131 1131 P________PPP__ WP011948 7.98499 146.622 35 0 7.98499 146.622 TC 35 8.00760 146.645 2 38 7.98499 146.622 35 993 330 8 347
1948011N07147 1948 2 WP MM KAREN 1948-01-11 18:00:00 TS 8.40243 146.510 main 1176 1176 O________OPO__ jtwc_wp WP011948 8.40000 146.500 35 0 8.40000 146.500 TC 35 8.41217 146.552 2 42 8.40000 146.500 35 992 300 9 343
1948011N07147 1948 2 WP MM KAREN 1948-01-11 21:00:00 TS 8.80257 146.371 main 1221 1221 P________PPP__ WP011948 8.79987 146.367 42 0 8.79987 146.367 TC 42 8.81067 146.383 2 46 8.79987 146.367 42 991 300 9 333
1948011N07147 1948 2 WP MM KAREN 1948-01-12 00:00:00 TS 9.20000 146.100 main 1267 1267 O________OOO__ jtwc_wp WP011948 9.20000 146.100 50 0 9.20000 146.100 TC 50 9.20000 146.100 2 50 9.20000 146.100 50 990 300 11 317
1948011N07147 1948 2 WP MM KAREN 1948-01-12 03:00:00 TS 9.61605 145.616 main 1315 1315 P________PPP__ WP011948 9.63014 145.595 52 0 9.63014 145.595 TC 52 9.57377 145.679 2 51 9.63014 145.595 52 989 330 13 307
1948011N07147 1948 2 WP MM KAREN 1948-01-12 06:00:00 TS 9.97825 145.039 main 1367 1367 O________OPO__ jtwc_wp WP011948 10.0000 145.000 55 0 10.0000 145.000 TC 55 9.91299 145.156 2 52 10.0000 145.000 55 988 360 13 300
1948011N07147 1948 2 WP MM KAREN 1948-01-12 09:00:00 TS 10.2382 144.520 main 1397 1397 P________PPP__ WP011948 10.2523 144.500 55 0 10.2523 144.500 TC 55 10.1956 144.579 2 53 10.2523 144.500 55 987 330 11 292
1948011N07147 1948 2 WP MM KAREN 1948-01-12 12:00:00 TS 10.4000 144.000 main 1429 1429 O________OOO__ jtwc_wp WP011948 10.4000 144.000 55 0 10.4000 144.000 TC 55 10.4000 144.000 2 55 10.4000 144.000 55 986 300 11 283
1948011N07147 1948 2 WP MM KAREN 1948-01-12 15:00:00 TS 10.4890 143.457 main 1452 1452 P________PPP__ WP011948 10.4800 143.442 57 0 10.4800 143.442 TC 57 10.5159 143.500 2 57 10.4800 143.442 57 985 330 11 276
1948011N07147 1948 2 WP MM KAREN 1948-01-12 18:00:00 TS 10.5136 142.927 main 1452 1437 O________OPO__ jtwc_wp WP011948 10.5000 142.900 60 0 10.5000 142.900 TC 60 10.5545 143.007 2 60 10.5000 142.900 60 984 360 10 271
1948011N07147 1948 2 WP MM KAREN 1948-01-12 21:00:00 TS 10.5100 142.471 main 1437 1419 P________PPP__ WP011948 10.4998 142.457 62 0 10.4998 142.457 TC 62 10.5408 142.510 2 62 10.4998 142.457 62 982 360 9 269
1948011N07147 1948 2 WP MM KAREN 1948-01-13 00:00:00 TS 10.5000 142.000 main 1419 1401 O________OOO__ jtwc_wp WP011948 10.5000 142.000 65 1 10.5000 142.000 TC 65 10.5000 142.000 3 65 10.5000 142.000 65 981 360 10 272
1948011N07147 1948 2 WP MM KAREN 1948-01-13 03:00:00 TS 10.5514 141.416 main 1412 1387 P________PPP__ WP011948 10.5726 141.408 67 1 10.5726 141.408 TC 67 10.4879 141.440 3 66 10.5726 141.408 67 979 360 12 273
1948011N07147 1948 2 WP MM KAREN 1948-01-13 06:00:00 TS 10.5632 140.818 main 1387 1356 O________OPO__ jtwc_wp WP011948 10.6000 140.800 70 1 10.6000 140.800 TC 70 10.4527 140.870 3 67 10.6000 140.800 70 978 360 11 265
1948011N07147 1948 2 WP MM KAREN 1948-01-13 09:00:00 TS 10.4577 140.287 main 1356 1316 P________PPP__ WP011948 10.4799 140.277 70 1 10.4799 140.277 TC 70 10.3911 140.315 3 68 10.4799 140.277 70 977 360 10 255
1948011N07147 1948 2 WP MM KAREN 1948-01-13 12:00:00 TS 10.3000 139.800 main 1316 1291 O________OOO__ jtwc_wp WP011948 10.3000 139.800 70 1 10.3000 139.800 TC 70 10.3000 139.800 4 70 10.3000 139.800 70 976 360 10 252
1948011N07147 1948 2 WP MM KAREN 1948-01-13 15:00:00 TS 10.1449 139.334 main 1277 1253 P________PPP__ WP011948 10.1500 139.328 70 1 10.1500 139.328 TC 70 10.1296 139.352 4 71 10.1500 139.328 70 975 390 9 250
1948011N07147 1948 2 WP MM KAREN 1948-01-13 18:00:00 TS 9.98487 138.912 main 1253 1222 O________OPO__ jtwc_wp WP011948 10.0000 138.900 70 1 10.0000 138.900 TC 70 9.93950 138.947 4 72 10.0000 138.900 70 975 420 8 246
1948011N07147 1948 2 WP MM KAREN 1948-01-13 21:00:00 TS 9.80417 138.560 main 1222 1200 P________PPP__ WP011948 9.81233 138.557 72 1 9.81233 138.557 TC 72 9.77968 138.568 4 73 9.81233 138.557 72 975 420 8 248
1948011N07147 1948 2 WP MM KAREN 1948-01-14 00:00:00 TS 9.70000 138.200 main 1200 1188 O________OOO__ jtwc_wp WP011948 9.70000 138.200 75 1 9.70000 138.200 TC 75 9.70000 138.200 4 75 9.70000 138.200 75 975 420 8 266
1948011N07147 1948 2 WP MM KAREN 1948-01-14 03:00:00 TS 9.75166 137.714 main 1199 1193 P________PPP__ WP011948 9.74765 137.685 75 1 9.74765 137.685 TC 75 9.76370 137.802 4 76 9.74765 137.685 75 975 420 10 282
1948011N07147 1948 2 WP MM KAREN 1948-01-14 06:00:00 TS 9.90249 137.253 main 1202 1172 O________OPO__ jtwc_wp WP011948 9.90000 137.200 75 1 9.90000 137.200 TC 75 9.90997 137.413 4 77 9.90000 137.200 75 975 420 8 294
1948011N07147 1948 2 WP MM KAREN 1948-01-14 09:00:00 TS 10.0946 136.945 main 1163 1147 P________PPP__ WP011948 10.0924 136.912 77 1 10.0924 136.912 TC 77 10.1012 137.043 4 78 10.0924 136.912 77 974 390 7 306
1948011N07147 1948 2 WP MM KAREN 1948-01-14 12:00:00 TS 10.3000 136.700 main 1147 1129 O________OOO__ jtwc_wp WP011948 10.3000 136.700 80 1 10.3000 136.700 TC 80 10.3000 136.700 4 80 10.3000 136.700 80 974 360 6 306
1948011N07147 1948 2 WP MM KAREN 1948-01-14 15:00:00 TS 10.4545 136.441 main 1121 1103 P________PPP__ WP011948 10.4575 136.457 80 1 10.4575 136.457 TC 80 10.4457 136.392 4 80 10.4575 136.457 80 973 360 6 300
1948011N07147 1948 2 WP MM KAREN 1948-01-14 18:00:00 TS 10.5981 136.178 main 1103 1074 O________OPO__ jtwc_wp WP011948 10.6000 136.200 80 1 10.6000 136.200 TC 80 10.5923 136.112 4 80 10.6000 136.200 80 972 360 6 298
1948011N07147 1948 2 WP MM KAREN 1948-01-14 21:00:00 TS 10.7425 135.893 main 1074 1046 P________PPP__ WP011948 10.7425 135.907 80 1 10.7425 135.907 TC 80 10.7427 135.851 4 80 10.7425 135.907 80 971 390 6 298
1948011N07147 1948 2 WP MM KAREN 1948-01-15 00:00:00 TS 10.9000 135.600 main 1046 1019 O________OOO__ jtwc_wp WP011948 10.9000 135.600 80 1 10.9000 135.600 TC 80 10.9000 135.600 4 80 10.9000 135.600 80 970 420 7 301
1948011N07147 1948 2 WP MM KAREN 1948-01-15 03:00:00 TS 11.0920 135.295 main 1019 991 P________PPP__ WP011948 11.1000 135.285 80 1 11.1000 135.285 TC 80 11.0678 135.327 4 83 11.1000 135.285 80 968 420 7 304
1948011N07147 1948 2 WP MM KAREN 1948-01-15 06:00:00 TS 11.2856 135.016 main 991 973 O________OPO__ jtwc_wp WP011948 11.3000 135.000 80 1 11.3000 135.000 TC 80 11.2425 135.063 4 87 11.3000 135.000 80 966 420 6 306
1948011N07147 1948 2 WP MM KAREN 1948-01-15 09:00:00 TS 11.4483 134.793 main 973 957 P________PPP__ WP011948 11.4574 134.785 87 2 11.4574 134.785 TC 87 11.4209 134.817 4 91 11.4574 134.785 87 963 390 5 308
1948011N07147 1948 2 WP MM KAREN 1948-01-15 12:00:00 TS 11.6000 134.600 main 957 939 O________OOO__ jtwc_wp WP011948 11.6000 134.600 95 2 11.6000 134.600 TC 95 11.6000 134.600 4 95 11.6000 134.600 95 961 360 5 307
1948011N07147 1948 2 WP MM KAREN 1948-01-15 15:00:00 TS 11.7486 134.384 main 939 921 P________PPP__ WP011948 11.7425 134.385 102 3 11.7425 134.385 TC 102 11.7668 134.381 4 103 11.7425 134.385 102 955 360 5 308
1948011N07147 1948 2 WP MM KAREN 1948-01-15 18:00:00 TS 11.9087 134.199 main 921 911 O________OPO__ jtwc_wp WP011948 11.9000 134.200 110 3 11.9000 134.200 TC 110 11.9349 134.195 4 112 11.9000 134.200 110 949 360 5 318
1948011N07147 1948 2 WP MM KAREN 1948-01-15 21:00:00 TS 12.0914 134.062 main 913 902 P________PPP__ WP011948 12.0850 134.063 120 4 12.0850 134.063 TC 120 12.1106 134.062 4 121 12.0850 134.063 120 943 330 4 334
1948011N07147 1948 2 WP MM KAREN 1948-01-16 00:00:00 TS 12.3000 134.000 main 905 905 O________OOO__ jtwc_wp WP011948 12.3000 134.000 130 4 12.3000 134.000 TC 130 12.3000 134.000 4 130 12.3000 134.000 130 937 300 5 354
1948011N07147 1948 2 WP MM KAREN 1948-01-16 03:00:00 TS 12.5381 134.006 main 908 908 P________PPP__ WP011948 12.5500 134.012 130 4 12.5500 134.012 TC 130 12.5023 133.988 4 130 12.5500 134.012 130 936 270 5 10
1948011N07147 1948 2 WP MM KAREN 1948-01-16 06:00:00 TS 12.7799 134.088 main 925 925 O________OPO__ jtwc_wp WP011948 12.8000 134.100 130 4 12.8000 134.100 TC 130 12.7197 134.050 4 130 12.8000 134.100 130 936 240 5 24
1948011N07147 1948 2 WP MM KAREN 1948-01-16 09:00:00 TS 12.9824 134.206 main 941 941 P________PPP__ WP011948 12.9925 134.213 130 4 12.9925 134.213 TC 130 12.9522 134.188 4 130 12.9925 134.213 130 938 240 5 36
1948011N07147 1948 2 WP MM KAREN 1948-01-16 12:00:00 TS 13.2000 134.400 main 967 967 O________OOO__ jtwc_wp WP011948 13.2000 134.400 130 4 13.2000 134.400 TC 130 13.2000 134.400 4 130 13.2000 134.400 130 940 240 7 42
1948011N07147 1948 2 WP MM KAREN 1948-01-16 15:00:00 TS 13.4856 134.664 main 1007 1007 P________PPP__ WP011948 13.4925 134.662 125 4 13.4925 134.662 TC 125 13.4648 134.670 4 122 13.4925 134.662 125 943 270 8 45
1948011N07147 1948 2 WP MM KAREN 1948-01-16 18:00:00 TS 13.7857 135.002 main 1045 1045 O________OPO__ jtwc_wp WP011948 13.8000 135.000 120 4 13.8000 135.000 TC 120 13.7426 135.010 4 115 13.8000 135.000 120 946 300 9 51
1948011N07147 1948 2 WP MM KAREN 1948-01-16 21:00:00 TS 14.0492 135.388 main 1091 1091 P________PPP__ WP011948 14.0575 135.385 110 3 14.0575 135.385 TC 110 14.0241 135.395 4 107 14.0575 135.385 110 950 300 9 56
1948011N07147 1948 2 WP MM KAREN 1948-01-17 00:00:00 TS 14.3000 135.800 main 1139 1139 O________OOO__ jtwc_wp WP011948 14.3000 135.800 100 3 14.3000 135.800 TC 100 14.3000 135.800 4 100 14.3000 135.800 100 955 300 9 57
1948011N07147 1948 2 WP MM KAREN 1948-01-17 03:00:00 TS 14.5537 136.195 main 1188 1188 P________PPP__ WP011948 14.5499 136.200 87 2 14.5499 136.200 TC 87 14.5651 136.178 4 93 14.5499 136.200 87 960 270 9 57
1948011N07147 1948 2 WP MM KAREN 1948-01-17 06:00:00 TS 14.8056 136.593 main 1235 1235 O________OPO__ jtwc_wp WP011948 14.8000 136.600 75 1 14.8000 136.600 TC 75 14.8222 136.570 4 87 14.8000 136.600 75 965 240 9 56
1948011N07147 1948 2 WP MM KAREN 1948-01-17 09:00:00 TS 15.0657 136.994 main 1284 1284 P________PPP__ WP011948 15.0649 137.000 75 1 15.0649 137.000 TC 75 15.0682 136.978 4 81 15.0649 137.000 75 969 240 9 58
1948011N07147 1948 2 WP MM KAREN 1948-01-17 12:00:00 TS 15.3000 137.400 main 1331 1331 O________OOO__ jtwc_wp WP011948 15.3000 137.400 75 1 15.3000 137.400 TC 75 15.3000 137.400 4 75 15.3000 137.400 75 973 240 9 63
1948011N07147 1948 2 WP MM KAREN 1948-01-17 15:00:00 TS 15.4575 137.779 main 1378 1378 P________PPP__ WP011948 15.4498 137.785 75 1 15.4498 137.785 TC 75 15.4803 137.760 4 72 15.4498 137.785 75 976 270 8 68
1948011N07147 1948 2 WP MM KAREN 1948-01-17 18:00:00 TS 15.6131 138.186 main 1423 1423 O________OPO__ jtwc_wp WP011948 15.6000 138.200 75 1 15.6000 138.200 TC 75 15.6524 138.146 4 70 15.6000 138.200 75 979 300 9 66
1948011N07147 1948 2 WP MM KAREN 1948-01-17 21:00:00 TS 15.8210 138.616 main 1469 1469 P________PPP__ WP011948 15.8119 138.618 70 1 15.8119 138.618 TC 70 15.8484 138.608 4 67 15.8119 138.618 70 981 300 11 63
1948011N07147 1948 2 WP MM KAREN 1948-01-18 00:00:00 TS 16.1000 139.200 main 1540 1540 O________OOO__ jtwc_wp WP011948 16.1000 139.200 65 1 16.1000 139.200 TC 65 16.1000 139.200 4 65 16.1000 139.200 65 983 300 15 65
1948011N07147 1948 2 WP MM KAREN 1948-01-18 03:00:00 TS 16.4674 140.065 main 1644 1644 P________PPP__ WP011948 16.4779 140.090 65 1 16.4779 140.090 TC 65 16.4357 139.992 4 63 16.4779 140.090 65 985 270 19 66
1948011N07147 1948 2 WP MM KAREN 1948-01-18 06:00:00 TS 16.8817 141.054 main 1759 1759 O________OPO__ jtwc_wp WP011948 16.9000 141.100 65 1 16.9000 141.100 TC 65 16.8268 140.915 4 62 16.9000 141.100 65 987 240 20 66
1948011N07147 1948 2 WP MM KAREN 1948-01-18 09:00:00 TS 17.2769 141.977 main 1863 1863 P________PPP__ WP011948 17.2844 142.001 62 0 17.2844 142.001 TC 62 17.2542 141.905 4 61 17.2844 142.001 62 988 240 19 65
1948011N07147 1948 2 WP MM KAREN 1948-01-18 12:00:00 TS 17.7000 142.900 main 1891 1875 O________OOO__ jtwc_wp WP011948 17.7000 142.900 60 0 17.7000 142.900 TC 60 17.7000 142.900 2 60 17.7000 142.900 60 990 240 20 63
1948011N07147 1948 2 WP MM KAREN 1948-01-18 15:00:00 TS 18.1874 143.855 main 1879 1864 P________PPP__ WP011948 18.1999 143.857 57 0 18.1999 143.857 TC 57 18.1501 143.849 2 56 18.1999 143.857 57 992 240 20 61
1948011N07147 1948 2 WP MM KAREN 1948-01-18 18:00:00 TS 18.6788 144.790 main 1869 1848 O________OPO__ jtwc_wp WP011948 18.7000 144.800 55 0 18.7000 144.800 TC 55 18.6010 144.754 2 52 18.7000 144.800 55 994 240 20 61
1948011N07147 1948 2 WP MM KAREN 1948-01-18 21:00:00 TS 19.1409 145.671 main 1854 1834 P________PPP__ WP011948 19.1671 145.680 50 0 19.1671 145.680 TC 50 19.0516 145.633 2 48 19.1255 145.672 50 995 210 18 63
1948011N07147 1948 2 WP MM KAREN 1948-01-19 00:00:00 TS 19.5000 146.500 main 1837 1834 O________OOO__ jtwc_wp WP011948 19.5000 146.500 45 0 19.5000 146.500 TC 45 19.5000 146.500 2 45 19.5000 146.500 45 997 180 16 73
1948011N07147 1948 2 WP MM KAREN 1948-01-19 03:00:00 TS 19.5945 147.266 main 1856 1856 P________P____ WP011948 19.5945 147.266 42 0 19.5945 147.266 TC 42 2 14 86
1948011N07147 1948 2 WP MM KAREN 1948-01-19 06:00:00 TS 19.6000 148.000 main 1884 1884 O________O____ jtwc_wp WP011948 19.6000 148.000 40 0 19.6000 148.000 TC 40 2 14 86
1948011N07147 1948 2 WP MM KAREN 1948-01-19 09:00:00 TS 19.6917 148.713 main 1904 1904 P________P____ WP011948 19.6917 148.713 37 0 19.6917 148.713 TC 37 2 14 82
1948011N07147 1948 2 WP MM KAREN 1948-01-19 12:00:00 TS 19.8000 149.500 main 1931 1931 O________O____ jtwc_wp WP011948 19.8000 149.500 35 0 19.8000 149.500 TC 35 16 83
1948011N07147 1948 2 WP MM KAREN 1948-01-19 15:00:00 TS 19.9041 150.450 main 1966 1966 P________P____ WP011948 19.9041 150.450 32 -1 19.9041 150.450 TC 32 19 84
1948011N07147 1948 2 WP MM KAREN 1948-01-19 18:00:00 TS 20.0000 151.500 main 2015 O________O____ jtwc_wp WP011948 20.0000 151.500 30 -1 20.0000 151.500 TC 30 20 84

Digital Typhoon Data and Search

About IBTrACS Database

This database is a web-friendly format of International Best Track Archive for Climate Stewardship (IBTrACS), a global best track data archive curated by NOAA dating back to 1842.

Updated: 2021-10-21